sensor_id;sensor_type;location;lat;lon;timestamp;temperature;humidity
40538;DHT22;27925;41.874;12.526;2023-10-19T00:01:58;20.90;75.00
40538;DHT22;27925;41.874;12.526;2023-10-19T00:04:27;20.90;75.20
40538;DHT22;27925;41.874;12.526;2023-10-19T00:06:58;20.90;75.10
40538;DHT22;27925;41.874;12.526;2023-10-19T00:09:24;20.90;74.40
40538;DHT22;27925;41.874;12.526;2023-10-19T00:11:51;21.00;74.30
40538;DHT22;27925;41.874;12.526;2023-10-19T00:14:18;21.00;74.10
40538;DHT22;27925;41.874;12.526;2023-10-19T00:16:44;21.00;73.80
40538;DHT22;27925;41.874;12.526;2023-10-19T00:19:22;21.00;73.80
40538;DHT22;27925;41.874;12.526;2023-10-19T00:21:53;21.00;73.90
40538;DHT22;27925;41.874;12.526;2023-10-19T00:24:27;21.00;73.70
40538;DHT22;27925;41.874;12.526;2023-10-19T00:26:57;21.10;73.60
40538;DHT22;27925;41.874;12.526;2023-10-19T00:29:22;21.10;73.20
40538;DHT22;27925;41.874;12.526;2023-10-19T00:32:01;21.10;73.30
40538;DHT22;27925;41.874;12.526;2023-10-19T00:34:28;21.10;72.70
40538;DHT22;27925;41.874;12.526;2023-10-19T00:36:54;21.10;72.70
40538;DHT22;27925;41.874;12.526;2023-10-19T00:39:27;21.20;72.60
40538;DHT22;27925;41.874;12.526;2023-10-19T00:41:53;21.20;72.60
40538;DHT22;27925;41.874;12.526;2023-10-19T00:44:24;21.20;72.70
40538;DHT22;27925;41.874;12.526;2023-10-19T00:47:09;21.20;72.70
40538;DHT22;27925;41.874;12.526;2023-10-19T00:49:39;21.20;73.00
40538;DHT22;27925;41.874;12.526;2023-10-19T00:52:06;21.30;72.60
40538;DHT22;27925;41.874;12.526;2023-10-19T00:54:46;21.30;72.60
40538;DHT22;27925;41.874;12.526;2023-10-19T00:57:25;21.30;72.50
40538;DHT22;27925;41.874;12.526;2023-10-19T01:00:01;21.30;73.50
40538;DHT22;27925;41.874;12.526;2023-10-19T01:02:50;21.20;73.70
40538;DHT22;27925;41.874;12.526;2023-10-19T01:05:18;21.20;73.90
40538;DHT22;27925;41.874;12.526;2023-10-19T01:07:47;21.20;73.90
40538;DHT22;27925;41.874;12.526;2023-10-19T01:10:21;21.20;74.20
40538;DHT22;27925;41.874;12.526;2023-10-19T01:12:47;21.20;74.30
40538;DHT22;27925;41.874;12.526;2023-10-19T01:15:14;21.20;74.50
40538;DHT22;27925;41.874;12.526;2023-10-19T01:17:45;21.10;74.70
40538;DHT22;27925;41.874;12.526;2023-10-19T01:20:21;21.10;74.80
40538;DHT22;27925;41.874;12.526;2023-10-19T01:23:04;21.10;75.10
40538;DHT22;27925;41.874;12.526;2023-10-19T01:28:09;21.00;75.60
40538;DHT22;27925;41.874;12.526;2023-10-19T01:30:36;20.90;75.70
40538;DHT22;27925;41.874;12.526;2023-10-19T01:33:04;20.90;76.10
40538;DHT22;27925;41.874;12.526;2023-10-19T01:35:30;20.80;76.30
40538;DHT22;27925;41.874;12.526;2023-10-19T01:38:16;20.70;76.50
40538;DHT22;27925;41.874;12.526;2023-10-19T01:40:41;20.80;77.00
40538;DHT22;27925;41.874;12.526;2023-10-19T01:43:14;20.70;77.60
40538;DHT22;27925;41.874;12.526;2023-10-19T01:45:52;20.70;77.10
40538;DHT22;27925;41.874;12.526;2023-10-19T01:48:20;20.60;77.40
40538;DHT22;27925;41.874;12.526;2023-10-19T01:50:49;20.70;77.60
40538;DHT22;27925;41.874;12.526;2023-10-19T01:53:17;20.70;77.70
40538;DHT22;27925;41.874;12.526;2023-10-19T01:55:44;20.70;77.70
40538;DHT22;27925;41.874;12.526;2023-10-19T01:58:12;20.70;77.60
40538;DHT22;27925;41.874;12.526;2023-10-19T02:00:40;20.70;77.80
40538;DHT22;27925;41.874;12.526;2023-10-19T02:03:08;20.70;77.90
40538;DHT22;27925;41.874;12.526;2023-10-19T02:05:34;20.70;78.20
40538;DHT22;27925;41.874;12.526;2023-10-19T02:08:08;20.60;78.30
40538;DHT22;27925;41.874;12.526;2023-10-19T02:10:36;20.60;78.20
40538;DHT22;27925;41.874;12.526;2023-10-19T02:13:08;20.60;78.20
40538;DHT22;27925;41.874;12.526;2023-10-19T02:15:36;20.60;78.40
40538;DHT22;27925;41.874;12.526;2023-10-19T02:18:05;20.70;78.00
40538;DHT22;27925;41.874;12.526;2023-10-19T02:20:30;20.70;77.70
40538;DHT22;27925;41.874;12.526;2023-10-19T02:22:57;20.70;77.60
40538;DHT22;27925;41.874;12.526;2023-10-19T02:25:25;20.70;77.50
40538;DHT22;27925;41.874;12.526;2023-10-19T02:27:56;20.70;77.80
40538;DHT22;27925;41.874;12.526;2023-10-19T02:30:21;20.70;77.50
40538;DHT22;27925;41.874;12.526;2023-10-19T02:32:50;20.70;77.40
40538;DHT22;27925;41.874;12.526;2023-10-19T02:35:16;20.70;77.10
40538;DHT22;27925;41.874;12.526;2023-10-19T02:37:42;20.70;77.00
40538;DHT22;27925;41.874;12.526;2023-10-19T02:40:08;20.80;76.70
40538;DHT22;27925;41.874;12.526;2023-10-19T02:42:48;20.80;76.50
40538;DHT22;27925;41.874;12.526;2023-10-19T02:45:16;20.80;76.40
40538;DHT22;27925;41.874;12.526;2023-10-19T02:47:46;20.80;76.40
40538;DHT22;27925;41.874;12.526;2023-10-19T02:50:12;20.80;76.30
40538;DHT22;27925;41.874;12.526;2023-10-19T02:52:48;20.80;76.40
40538;DHT22;27925;41.874;12.526;2023-10-19T02:55:14;20.80;76.10
40538;DHT22;27925;41.874;12.526;2023-10-19T02:57:42;20.80;75.90
40538;DHT22;27925;41.874;12.526;2023-10-19T03:00:12;20.80;76.00
40538;DHT22;27925;41.874;12.526;2023-10-19T03:02:45;20.80;76.10
40538;DHT22;27925;41.874;12.526;2023-10-19T03:05:11;20.80;76.10
40538;DHT22;27925;41.874;12.526;2023-10-19T03:07:43;20.80;76.70
40538;DHT22;27925;41.874;12.526;2023-10-19T03:10:10;20.80;76.10
40538;DHT22;27925;41.874;12.526;2023-10-19T03:12:52;20.80;76.10
40538;DHT22;27925;41.874;12.526;2023-10-19T03:15:18;20.70;76.10
40538;DHT22;27925;41.874;12.526;2023-10-19T03:17:47;20.70;76.30
40538;DHT22;27925;41.874;12.526;2023-10-19T03:20:14;20.70;75.90
40538;DHT22;27925;41.874;12.526;2023-10-19T03:22:42;20.80;76.20
40538;DHT22;27925;41.874;12.526;2023-10-19T03:25:09;20.90;76.50
40538;DHT22;27925;41.874;12.526;2023-10-19T03:28:00;20.90;77.00
40538;DHT22;27925;41.874;12.526;2023-10-19T03:30:37;21.00;77.00
40538;DHT22;27925;41.874;12.526;2023-10-19T03:33:06;21.10;77.20
40538;DHT22;27925;41.874;12.526;2023-10-19T03:35:37;21.20;77.70
40538;DHT22;27925;41.874;12.526;2023-10-19T03:38:04;21.30;78.20
40538;DHT22;27925;41.874;12.526;2023-10-19T03:40:50;21.40;78.40
40538;DHT22;27925;41.874;12.526;2023-10-19T03:43:25;21.40;79.00
40538;DHT22;27925;41.874;12.526;2023-10-19T03:45:53;21.50;78.80
40538;DHT22;27925;41.874;12.526;2023-10-19T03:48:19;21.50;78.90
40538;DHT22;27925;41.874;12.526;2023-10-19T03:50:55;21.60;79.20
40538;DHT22;27925;41.874;12.526;2023-10-19T03:53:23;21.60;78.80
40538;DHT22;27925;41.874;12.526;2023-10-19T03:55:49;21.70;79.00
40538;DHT22;27925;41.874;12.526;2023-10-19T03:58:16;21.70;78.70
40538;DHT22;27925;41.874;12.526;2023-10-19T04:00:42;21.80;78.80
40538;DHT22;27925;41.874;12.526;2023-10-19T04:03:09;21.80;78.70
40538;DHT22;27925;41.874;12.526;2023-10-19T04:05:36;21.80;78.80
40538;DHT22;27925;41.874;12.526;2023-10-19T04:08:05;21.90;78.80
40538;DHT22;27925;41.874;12.526;2023-10-19T04:10:39;21.90;78.90
40538;DHT22;27925;41.874;12.526;2023-10-19T04:13:10;21.80;78.80
40538;DHT22;27925;41.874;12.526;2023-10-19T04:15:37;21.90;79.00
40538;DHT22;27925;41.874;12.526;2023-10-19T04:18:05;21.90;79.00
40538;DHT22;27925;41.874;12.526;2023-10-19T04:20:34;21.90;79.40
40538;DHT22;27925;41.874;12.526;2023-10-19T04:23:18;21.90;79.60
40538;DHT22;27925;41.874;12.526;2023-10-19T04:25:46;21.90;79.40
40538;DHT22;27925;41.874;12.526;2023-10-19T04:28:12;21.90;79.00
40538;DHT22;27925;41.874;12.526;2023-10-19T04:30:41;21.90;79.20
40538;DHT22;27925;41.874;12.526;2023-10-19T04:33:06;21.90;79.30
40538;DHT22;27925;41.874;12.526;2023-10-19T04:35:36;21.90;79.60
40538;DHT22;27925;41.874;12.526;2023-10-19T04:38:04;22.00;78.90
40538;DHT22;27925;41.874;12.526;2023-10-19T04:40:33;22.00;79.00
40538;DHT22;27925;41.874;12.526;2023-10-19T04:43:02;22.00;79.10
40538;DHT22;27925;41.874;12.526;2023-10-19T04:45:33;22.00;79.00
40538;DHT22;27925;41.874;12.526;2023-10-19T04:47:59;22.00;79.20
40538;DHT22;27925;41.874;12.526;2023-10-19T04:50:25;22.00;79.20
40538;DHT22;27925;41.874;12.526;2023-10-19T04:52:50;22.10;79.60
40538;DHT22;27925;41.874;12.526;2023-10-19T04:55:16;22.10;79.80
40538;DHT22;27925;41.874;12.526;2023-10-19T04:57:42;22.10;80.20
40538;DHT22;27925;41.874;12.526;2023-10-19T05:00:08;22.10;80.20
40538;DHT22;27925;41.874;12.526;2023-10-19T05:02:39;22.10;80.50
40538;DHT22;27925;41.874;12.526;2023-10-19T05:05:05;22.00;80.30
40538;DHT22;27925;41.874;12.526;2023-10-19T05:07:30;22.10;80.90
40538;DHT22;27925;41.874;12.526;2023-10-19T05:09:56;22.10;80.90
40538;DHT22;27925;41.874;12.526;2023-10-19T05:12:24;22.10;80.80
40538;DHT22;27925;41.874;12.526;2023-10-19T05:14:50;22.20;81.10
40538;DHT22;27925;41.874;12.526;2023-10-19T05:17:16;22.10;81.10
40538;DHT22;27925;41.874;12.526;2023-10-19T05:19:42;22.10;81.30
40538;DHT22;27925;41.874;12.526;2023-10-19T05:22:08;22.10;81.40
40538;DHT22;27925;41.874;12.526;2023-10-19T05:24:35;22.10;82.20
40538;DHT22;27925;41.874;12.526;2023-10-19T05:27:01;22.10;81.60
40538;DHT22;27925;41.874;12.526;2023-10-19T05:29:27;22.10;81.90
40538;DHT22;27925;41.874;12.526;2023-10-19T05:31:54;22.20;82.00
40538;DHT22;27925;41.874;12.526;2023-10-19T05:34:23;22.20;81.90
40538;DHT22;27925;41.874;12.526;2023-10-19T05:36:49;22.20;81.70
40538;DHT22;27925;41.874;12.526;2023-10-19T05:39:16;22.20;81.90
40538;DHT22;27925;41.874;12.526;2023-10-19T05:41:41;22.30;81.80
40538;DHT22;27925;41.874;12.526;2023-10-19T05:44:08;22.30;81.80
40538;DHT22;27925;41.874;12.526;2023-10-19T05:46:33;22.30;81.90
40538;DHT22;27925;41.874;12.526;2023-10-19T05:48:59;22.40;81.90
40538;DHT22;27925;41.874;12.526;2023-10-19T05:51:27;22.40;81.80
40538;DHT22;27925;41.874;12.526;2023-10-19T05:53:52;22.40;81.60
40538;DHT22;27925;41.874;12.526;2023-10-19T05:56:19;22.40;81.90
40538;DHT22;27925;41.874;12.526;2023-10-19T05:58:46;22.40;81.70
40538;DHT22;27925;41.874;12.526;2023-10-19T06:01:16;22.50;81.70
40538;DHT22;27925;41.874;12.526;2023-10-19T06:03:43;22.50;81.40
40538;DHT22;27925;41.874;12.526;2023-10-19T06:06:08;22.60;81.60
40538;DHT22;27925;41.874;12.526;2023-10-19T20:59:50;23.90;92.10
40538;DHT22;27925;41.874;12.526;2023-10-19T21:02:16;23.90;92.10
40538;DHT22;27925;41.874;12.526;2023-10-19T21:04:42;23.90;92.10
40538;DHT22;27925;41.874;12.526;2023-10-19T21:07:08;23.90;92.20
40538;DHT22;27925;41.874;12.526;2023-10-19T21:09:34;23.90;92.20
40538;DHT22;27925;41.874;12.526;2023-10-19T21:12:00;23.90;92.20
40538;DHT22;27925;41.874;12.526;2023-10-19T21:14:25;23.80;92.10
40538;DHT22;27925;41.874;12.526;2023-10-19T21:16:51;23.80;92.20
40538;DHT22;27925;41.874;12.526;2023-10-19T21:19:17;23.80;92.20
40538;DHT22;27925;41.874;12.526;2023-10-19T21:21:42;23.80;92.20
40538;DHT22;27925;41.874;12.526;2023-10-19T21:24:08;23.80;92.30
40538;DHT22;27925;41.874;12.526;2023-10-19T21:26:34;23.80;92.30
40538;DHT22;27925;41.874;12.526;2023-10-19T21:29:00;23.80;92.30
40538;DHT22;27925;41.874;12.526;2023-10-19T21:31:27;23.80;92.30
40538;DHT22;27925;41.874;12.526;2023-10-19T21:33:52;23.80;92.40
40538;DHT22;27925;41.874;12.526;2023-10-19T21:36:18;23.80;92.40
40538;DHT22;27925;41.874;12.526;2023-10-19T21:38:45;23.80;92.40
40538;DHT22;27925;41.874;12.526;2023-10-19T21:41:14;23.80;92.40
40538;DHT22;27925;41.874;12.526;2023-10-19T21:43:41;23.70;92.40
40538;DHT22;27925;41.874;12.526;2023-10-19T21:46:06;23.80;92.40
40538;DHT22;27925;41.874;12.526;2023-10-19T21:48:32;23.70;92.30
40538;DHT22;27925;41.874;12.526;2023-10-19T21:50:58;23.70;92.30
40538;DHT22;27925;41.874;12.526;2023-10-19T21:53:25;23.80;92.30
40538;DHT22;27925;41.874;12.526;2023-10-19T21:55:54;23.70;92.30
40538;DHT22;27925;41.874;12.526;2023-10-19T21:58:20;23.70;92.30
40538;DHT22;27925;41.874;12.526;2023-10-19T22:00:47;23.70;92.20
40538;DHT22;27925;41.874;12.526;2023-10-19T22:03:28;23.70;92.20
40538;DHT22;27925;41.874;12.526;2023-10-19T22:05:54;23.60;92.20
40538;DHT22;27925;41.874;12.526;2023-10-19T22:08:20;23.60;92.20
40538;DHT22;27925;41.874;12.526;2023-10-19T22:10:46;23.60;92.10
40538;DHT22;27925;41.874;12.526;2023-10-19T22:13:12;23.60;92.00
40538;DHT22;27925;41.874;12.526;2023-10-19T22:15:41;23.60;92.00
40538;DHT22;27925;41.874;12.526;2023-10-19T22:18:07;23.60;92.00
40538;DHT22;27925;41.874;12.526;2023-10-19T22:20:34;23.60;92.00
40538;DHT22;27925;41.874;12.526;2023-10-19T22:23:01;23.60;91.80
40538;DHT22;27925;41.874;12.526;2023-10-19T22:25:27;23.60;91.80
40538;DHT22;27925;41.874;12.526;2023-10-19T22:27:54;23.50;91.70
40538;DHT22;27925;41.874;12.526;2023-10-19T22:30:20;23.60;91.80
40538;DHT22;27925;41.874;12.526;2023-10-19T22:32:47;23.50;91.70
40538;DHT22;27925;41.874;12.526;2023-10-19T22:35:13;23.60;91.60
40538;DHT22;27925;41.874;12.526;2023-10-19T22:37:39;23.60;91.60
40538;DHT22;27925;41.874;12.526;2023-10-19T22:40:06;23.60;91.50
40538;DHT22;27925;41.874;12.526;2023-10-19T22:42:32;23.60;91.50
40538;DHT22;27925;41.874;12.526;2023-10-19T22:44:58;23.60;91.40
40538;DHT22;27925;41.874;12.526;2023-10-19T22:47:24;23.60;91.30
40538;DHT22;27925;41.874;12.526;2023-10-19T22:49:49;23.60;91.30
40538;DHT22;27925;41.874;12.526;2023-10-19T22:52:15;23.60;91.10
40538;DHT22;27925;41.874;12.526;2023-10-19T22:54:41;23.50;91.00
40538;DHT22;27925;41.874;12.526;2023-10-19T22:57:07;23.50;91.00
40538;DHT22;27925;41.874;12.526;2023-10-19T22:59:34;23.50;90.90
40538;DHT22;27925;41.874;12.526;2023-10-19T23:02:00;23.50;90.80
40538;DHT22;27925;41.874;12.526;2023-10-19T23:04:25;23.50;90.70
40538;DHT22;27925;41.874;12.526;2023-10-19T23:06:51;23.50;90.60
40538;DHT22;27925;41.874;12.526;2023-10-19T23:09:20;23.50;90.60
40538;DHT22;27925;41.874;12.526;2023-10-19T23:11:52;23.50;90.40
40538;DHT22;27925;41.874;12.526;2023-10-19T23:14:28;23.50;90.40
40538;DHT22;27925;41.874;12.526;2023-10-19T23:16:54;23.50;90.30
40538;DHT22;27925;41.874;12.526;2023-10-19T23:19:23;23.40;90.20
40538;DHT22;27925;41.874;12.526;2023-10-19T23:21:50;23.40;90.10
40538;DHT22;27925;41.874;12.526;2023-10-19T23:24:19;23.40;90.10
40538;DHT22;27925;41.874;12.526;2023-10-19T23:26:52;23.40;90.00
40538;DHT22;27925;41.874;12.526;2023-10-19T23:29:19;23.40;89.80
40538;DHT22;27925;41.874;12.526;2023-10-19T23:31:45;23.50;89.60
40538;DHT22;27925;41.874;12.526;2023-10-19T23:34:11;23.40;88.80
40538;DHT22;27925;41.874;12.526;2023-10-19T23:36:38;23.50;88.50
40538;DHT22;27925;41.874;12.526;2023-10-19T23:39:04;23.50;88.00
40538;DHT22;27925;41.874;12.526;2023-10-19T23:41:32;23.50;87.80
40538;DHT22;27925;41.874;12.526;2023-10-19T23:43:58;23.50;87.70
40538;DHT22;27925;41.874;12.526;2023-10-19T23:46:24;23.50;87.10
40538;DHT22;27925;41.874;12.526;2023-10-19T23:48:50;23.50;86.80
40538;DHT22;27925;41.874;12.526;2023-10-19T23:51:15;23.50;86.20
40538;DHT22;27925;41.874;12.526;2023-10-19T23:53:41;23.50;85.70
40538;DHT22;27925;41.874;12.526;2023-10-19T23:56:08;23.50;85.60
40538;DHT22;27925;41.874;12.526;2023-10-19T23:58:34;23.50;85.30
